Market Bosworth, United Kingdom
Current Conditions -  °F | °C
As of 11:50 PM on Saturday 25 Oct 2014 (Local Time) from EGNX Reporting Station
Broken Clouds Broken Clouds  
Wind Chill: 52°   Ceiling: 4400
Heat Index: 52°   Visibility: 6mi
Dew Point: 46°   Wind: 16mph
Humidity: 82%   Direction: 200°SSW
Pressure: 30.03"   Gusts: NA
Location:  52.62°N, 1.4°W
Report Text: EGNX 252250Z 20014KT 9999 BKN044 11/08 Q1017
Loading
Personal Weather Stations






























Interactive Weather Map New forecast layout! Learn more

10-Day Weather Forecast

Advertisements
Track Severe Weather on mobile